sensor_id;sensor_type;location;lat;lon;timestamp;pressure;altitude;pressure_sealevel;temperature;humidity
10806;BME280;5455;53.224;6.000;2023-07-30T00:00:55;100683.28;;;16.70;100.00
10806;BME280;5455;53.224;6.000;2023-07-30T00:03:22;100683.22;;;16.77;100.00
10806;BME280;5455;53.224;6.000;2023-07-30T00:05:56;100675.22;;;16.86;100.00
10806;BME280;5455;53.224;6.000;2023-07-30T00:08:23;100675.22;;;16.86;100.00
10806;BME280;5455;53.224;6.000;2023-07-30T00:10:51;100673.25;;;16.83;100.00
10806;BME280;5455;53.224;6.000;2023-07-30T00:13:18;100679.22;;;16.85;100.00
10806;BME280;5455;53.224;6.000;2023-07-30T00:15:46;100670.06;;;16.84;100.00
10806;BME280;5455;53.224;6.000;2023-07-30T00:18:14;100676.44;;;16.85;100.00
10806;BME280;5455;53.224;6.000;2023-07-30T00:20:42;100682.78;;;16.85;100.00
10806;BME280;5455;53.224;6.000;2023-07-30T00:23:15;100676.81;;;16.83;100.00
10806;BME280;5455;53.224;6.000;2023-07-30T00:25:42;100683.22;;;16.80;100.00
10806;BME280;5455;53.224;6.000;2023-07-30T00:28:10;100671.28;;;16.80;100.00
10806;BME280;5455;53.224;6.000;2023-07-30T00:30:37;100676.47;;;16.74;100.00
10806;BME280;5455;53.224;6.000;2023-07-30T00:33:04;100689.56;;;16.81;100.00
10806;BME280;5455;53.224;6.000;2023-07-30T00:35:31;100688.75;;;16.84;100.00
10806;BME280;5455;53.224;6.000;2023-07-30T00:37:58;100674.03;;;16.83;100.00
10806;BME280;5455;53.224;6.000;2023-07-30T00:40:25;100675.66;;;16.77;100.00
10806;BME280;5455;53.224;6.000;2023-07-30T00:42:54;100684.78;;;16.85;100.00
10806;BME280;5455;53.224;6.000;2023-07-30T00:45:21;100681.59;;;16.86;100.00
10806;BME280;5455;53.224;6.000;2023-07-30T00:47:49;100685.53;;;16.89;100.00
10806;BME280;5455;53.224;6.000;2023-07-30T00:50:17;100685.97;;;16.91;100.00
10806;BME280;5455;53.224;6.000;2023-07-30T00:52:44;100689.56;;;16.88;100.00
10806;BME280;5455;53.224;6.000;2023-07-30T00:55:13;100687.94;;;16.87;100.00
10806;BME280;5455;53.224;6.000;2023-07-30T00:57:41;100691.91;;;16.89;100.00
10806;BME280;5455;53.224;6.000;2023-07-30T01:00:09;100689.50;;;16.91;100.00
10806;BME280;5455;53.224;6.000;2023-07-30T01:02:37;100693.09;;;16.92;100.00
10806;BME280;5455;53.224;6.000;2023-07-30T01:05:05;100695.06;;;16.98;100.00
10806;BME280;5455;53.224;6.000;2023-07-30T01:07:32;100692.25;;;16.98;100.00
10806;BME280;5455;53.224;6.000;2023-07-30T01:10:00;100691.44;;;17.01;100.00
10806;BME280;5455;53.224;6.000;2023-07-30T01:12:32;100689.03;;;17.03;100.00
10806;BME280;5455;53.224;6.000;2023-07-30T01:15:01;100687.47;;;17.06;100.00
10806;BME280;5455;53.224;6.000;2023-07-30T01:17:29;100689.47;;;17.02;100.00
10806;BME280;5455;53.224;6.000;2023-07-30T01:19:56;100691.88;;;17.00;100.00
10806;BME280;5455;53.224;6.000;2023-07-30T01:22:24;100690.19;;;17.13;100.00
10806;BME280;5455;53.224;6.000;2023-07-30T01:24:53;100695.38;;;17.15;100.00
10806;BME280;5455;53.224;6.000;2023-07-30T01:27:31;100698.94;;;17.15;100.00
10806;BME280;5455;53.224;6.000;2023-07-30T01:30:08;100696.53;;;17.17;100.00
10806;BME280;5455;53.224;6.000;2023-07-30T01:32:40;100700.13;;;17.14;100.00
10806;BME280;5455;53.224;6.000;2023-07-30T01:35:13;100692.53;;;17.22;100.00
10806;BME280;5455;53.224;6.000;2023-07-30T01:37:42;100699.66;;;17.26;100.00
10806;BME280;5455;53.224;6.000;2023-07-30T01:40:15;100688.47;;;17.33;100.00
10806;BME280;5455;53.224;6.000;2023-07-30T01:42:42;100688.06;;;17.35;100.00
10806;BME280;5455;53.224;6.000;2023-07-30T01:45:10;100695.59;;;17.38;100.00
10806;BME280;5455;53.224;6.000;2023-07-30T01:47:37;100700.81;;;17.36;100.00
10806;BME280;5455;53.224;6.000;2023-07-30T01:50:04;100690.06;;;17.34;100.00
10806;BME280;5455;53.224;6.000;2023-07-30T01:52:31;100699.22;;;17.31;100.00
10806;BME280;5455;53.224;6.000;2023-07-30T01:54:58;100702.00;;;17.31;100.00
10806;BME280;5455;53.224;6.000;2023-07-30T01:57:28;100705.25;;;17.26;100.00
10806;BME280;5455;53.224;6.000;2023-07-30T01:59:55;100710.81;;;17.26;100.00
10806;BME280;5455;53.224;6.000;2023-07-30T02:02:27;100699.25;;;17.28;100.00
10806;BME280;5455;53.224;6.000;2023-07-30T02:04:55;100697.28;;;17.25;100.00
10806;BME280;5455;53.224;6.000;2023-07-30T02:07:22;100684.13;;;17.25;100.00
10806;BME280;5455;53.224;6.000;2023-07-30T02:09:49;100687.75;;;17.22;100.00
10806;BME280;5455;53.224;6.000;2023-07-30T02:12:16;100696.50;;;17.24;100.00
10806;BME280;5455;53.224;6.000;2023-07-30T02:14:43;100696.50;;;17.24;100.00
10806;BME280;5455;53.224;6.000;2023-07-30T02:17:11;100690.50;;;17.26;100.00
10806;BME280;5455;53.224;6.000;2023-07-30T02:19:38;100689.72;;;17.25;100.00
10806;BME280;5455;53.224;6.000;2023-07-30T02:22:05;100690.53;;;17.19;100.00
10806;BME280;5455;53.224;6.000;2023-07-30T02:24:33;100693.72;;;17.24;100.00
10806;BME280;5455;53.224;6.000;2023-07-30T02:27:00;100692.13;;;17.23;100.00
10806;BME280;5455;53.224;6.000;2023-07-30T02:29:28;100688.97;;;17.21;100.00
10806;BME280;5455;53.224;6.000;2023-07-30T02:31:55;100689.34;;;17.20;100.00
10806;BME280;5455;53.224;6.000;2023-07-30T02:34:23;100686.56;;;17.23;100.00
10806;BME280;5455;53.224;6.000;2023-07-30T02:36:50;100687.31;;;17.27;100.00
10806;BME280;5455;53.224;6.000;2023-07-30T02:39:17;100690.94;;;17.24;100.00
10806;BME280;5455;53.224;6.000;2023-07-30T02:41:45;100681.78;;;17.20;100.00
10806;BME280;5455;53.224;6.000;2023-07-30T02:44:12;100684.59;;;17.17;100.00
10806;BME280;5455;53.224;6.000;2023-07-30T02:46:39;100680.28;;;17.08;100.00
10806;BME280;5455;53.224;6.000;2023-07-30T02:49:06;100677.91;;;17.03;100.00
10806;BME280;5455;53.224;6.000;2023-07-30T02:51:33;100680.69;;;17.03;100.00
10806;BME280;5455;53.224;6.000;2023-07-30T02:54:04;100681.13;;;16.98;100.00
10806;BME280;5455;53.224;6.000;2023-07-30T02:56:32;100690.25;;;17.06;100.00
10806;BME280;5455;53.224;6.000;2023-07-30T02:58:59;100688.69;;;16.94;100.00
10806;BME280;5455;53.224;6.000;2023-07-30T03:01:27;100684.72;;;16.92;100.00
10806;BME280;5455;53.224;6.000;2023-07-30T03:03:55;100691.09;;;16.92;100.00
10806;BME280;5455;53.224;6.000;2023-07-30T03:06:23;100685.97;;;16.87;100.00
10806;BME280;5455;53.224;6.000;2023-07-30T03:08:50;100678.00;;;16.86;100.00
10806;BME280;5455;53.224;6.000;2023-07-30T03:11:17;100680.44;;;16.80;100.00
10806;BME280;5455;53.224;6.000;2023-07-30T03:13:44;100690.75;;;16.87;100.00
10806;BME280;5455;53.224;6.000;2023-07-30T03:16:13;100691.16;;;16.82;100.00
10806;BME280;5455;53.224;6.000;2023-07-30T03:18:40;100689.16;;;16.82;100.00
10806;BME280;5455;53.224;6.000;2023-07-30T03:21:07;100691.97;;;16.79;100.00
10806;BME280;5455;53.224;6.000;2023-07-30T03:23:34;100681.22;;;16.84;100.00
10806;BME280;5455;53.224;6.000;2023-07-30T03:26:02;100691.56;;;16.84;100.00
10806;BME280;5455;53.224;6.000;2023-07-30T03:28:29;100684.72;;;16.92;100.00
10806;BME280;5455;53.224;6.000;2023-07-30T03:30:56;100686.72;;;16.95;100.00
10806;BME280;5455;53.224;6.000;2023-07-30T03:33:23;100680.75;;;16.96;100.00
10806;BME280;5455;53.224;6.000;2023-07-30T03:35:50;100683.13;;;16.94;100.00
10806;BME280;5455;53.224;6.000;2023-07-30T03:38:17;100683.94;;;16.91;100.00
10806;BME280;5455;53.224;6.000;2023-07-30T03:40:44;100684.38;;;16.86;100.00
10806;BME280;5455;53.224;6.000;2023-07-30T03:43:11;100685.59;;;16.82;100.00
10806;BME280;5455;53.224;6.000;2023-07-30T03:45:39;100690.31;;;16.88;100.00
10806;BME280;5455;53.224;6.000;2023-07-30T03:48:06;100691.88;;;17.00;100.00
10806;BME280;5455;53.224;6.000;2023-07-30T03:50:37;100693.44;;;17.01;100.00
10806;BME280;5455;53.224;6.000;2023-07-30T03:53:04;100691.13;;;16.89;100.00
10806;BME280;5455;53.224;6.000;2023-07-30T03:55:31;100690.31;;;16.92;100.00
10806;BME280;5455;53.224;6.000;2023-07-30T03:57:58;100696.22;;;17.01;100.00
10806;BME280;5455;53.224;6.000;2023-07-30T04:00:25;100708.59;;;16.96;100.00
10806;BME280;5455;53.224;6.000;2023-07-30T04:02:53;100704.56;;;17.04;100.00
10806;BME280;5455;53.224;6.000;2023-07-30T04:05:20;100700.59;;;17.02;100.00
10806;BME280;5455;53.224;6.000;2023-07-30T04:07:47;100693.41;;;17.08;100.00
10806;BME280;5455;53.224;6.000;2023-07-30T04:10:15;100698.94;;;17.15;100.00
10806;BME280;5455;53.224;6.000;2023-07-30T04:12:42;100703.66;;;17.22;100.00
10806;BME280;5455;53.224;6.000;2023-07-30T04:15:10;100697.34;;;17.18;100.00
10806;BME280;5455;53.224;6.000;2023-07-30T04:17:37;100708.03;;;17.23;100.00
10806;BME280;5455;53.224;6.000;2023-07-30T04:20:05;100706.44;;;17.25;100.00
10806;BME280;5455;53.224;6.000;2023-07-30T04:22:32;100709.63;;;17.27;100.00
10806;BME280;5455;53.224;6.000;2023-07-30T04:24:59;100703.97;;;17.34;100.00
10806;BME280;5455;53.224;6.000;2023-07-30T04:27:27;100701.19;;;17.38;100.00
10806;BME280;5455;53.224;6.000;2023-07-30T04:29:58;100705.97;;;17.37;100.00
10806;BME280;5455;53.224;6.000;2023-07-30T04:32:25;100699.53;;;17.44;100.00
10806;BME280;5455;53.224;6.000;2023-07-30T04:34:53;100695.97;;;17.43;100.00
10806;BME280;5455;53.224;6.000;2023-07-30T04:37:20;100704.31;;;17.47;100.00
10806;BME280;5455;53.224;6.000;2023-07-30T04:39:48;100703.56;;;17.39;100.00
10806;BME280;5455;53.224;6.000;2023-07-30T04:42:16;100698.38;;;17.41;100.00
10806;BME280;5455;53.224;6.000;2023-07-30T04:44:43;100700.78;;;17.39;100.00
10806;BME280;5455;53.224;6.000;2023-07-30T04:47:14;100704.75;;;17.38;100.00
10806;BME280;5455;53.224;6.000;2023-07-30T04:49:42;100703.13;;;17.44;100.00
10806;BME280;5455;53.224;6.000;2023-07-30T04:52:09;100702.69;;;17.49;100.00
10806;BME280;5455;53.224;6.000;2023-07-30T04:54:36;100705.84;;;17.58;100.00
10806;BME280;5455;53.224;6.000;2023-07-30T04:57:03;100709.78;;;17.65;100.00
10806;BME280;5455;53.224;6.000;2023-07-30T04:59:30;100704.97;;;17.69;100.00
10806;BME280;5455;53.224;6.000;2023-07-30T05:01:58;100706.09;;;17.78;100.00
10806;BME280;5455;53.224;6.000;2023-07-30T05:04:28;100706.81;;;17.82;100.00
10806;BME280;5455;53.224;6.000;2023-07-30T05:06:54;100703.22;;;17.85;100.00
10806;BME280;5455;53.224;6.000;2023-07-30T05:09:22;100707.97;;;17.88;100.00
10806;BME280;5455;53.224;6.000;2023-07-30T05:11:49;100712.69;;;17.95;100.00
10806;BME280;5455;53.224;6.000;2023-07-30T05:14:16;100714.19;;;18.06;100.00
10806;BME280;5455;53.224;6.000;2023-07-30T05:16:43;100716.25;;;17.99;100.00
10806;BME280;5455;53.224;6.000;2023-07-30T05:19:10;100710.28;;;17.97;100.00
10806;BME280;5455;53.224;6.000;2023-07-30T05:21:38;100719.09;;;17.95;100.00
10806;BME280;5455;53.224;6.000;2023-07-30T05:24:07;100713.84;;;18.01;100.00
10806;BME280;5455;53.224;6.000;2023-07-30T05:26:35;100717.44;;;18.01;100.00
10806;BME280;5455;53.224;6.000;2023-07-30T05:29:02;100715.09;;;17.96;100.00
10806;BME280;5455;53.224;6.000;2023-07-30T05:31:32;100710.75;;;17.92;100.00
10806;BME280;5455;53.224;6.000;2023-07-30T05:33:59;100716.69;;;17.94;100.00
10806;BME280;5455;53.224;6.000;2023-07-30T05:36:28;100714.22;;;18.03;100.00
10806;BME280;5455;53.224;6.000;2023-07-30T05:38:55;100717.31;;;18.12;100.00
10806;BME280;5455;53.224;6.000;2023-07-30T05:41:23;100725.16;;;18.24;100.00
10806;BME280;5455;53.224;6.000;2023-07-30T05:43:50;100725.03;;;18.38;100.00
10806;BME280;5455;53.224;6.000;2023-07-30T05:46:17;100724.47;;;18.54;100.00
10806;BME280;5455;53.224;6.000;2023-07-30T05:48:44;100724.00;;;18.62;100.00
10806;BME280;5455;53.224;6.000;2023-07-30T05:51:11;100728.53;;;18.49;100.00
10806;BME280;5455;53.224;6.000;2023-07-30T05:53:38;100723.44;;;18.37;100.00
10806;BME280;5455;53.224;6.000;2023-07-30T05:56:05;100726.59;;;18.39;100.00
10806;BME280;5455;53.224;6.000;2023-07-30T05:58:33;100723.41;;;18.41;100.00
10806;BME280;5455;53.224;6.000;2023-07-30T06:01:00;100720.69;;;18.34;100.00
10806;BME280;5455;53.224;6.000;2023-07-30T06:03:27;100732.19;;;18.39;100.00
10806;BME280;5455;53.224;6.000;2023-07-30T06:05:55;100733.31;;;18.45;100.00
10806;BME280;5455;53.224;6.000;2023-07-30T06:08:22;100731.31;;;18.46;100.00
10806;BME280;5455;53.224;6.000;2023-07-30T06:10:53;100727.34;;;18.47;100.00
10806;BME280;5455;53.224;6.000;2023-07-30T06:13:20;100726.63;;;18.36;100.00
10806;BME280;5455;53.224;6.000;2023-07-30T06:15:47;100742.66;;;18.32;100.00
10806;BME280;5455;53.224;6.000;2023-07-30T06:18:14;100733.84;;;18.33;100.00
10806;BME280;5455;53.224;6.000;2023-07-30T06:20:41;100735.75;;;18.43;100.00
10806;BME280;5455;53.224;6.000;2023-07-30T06:23:08;100739.53;;;18.63;100.00
10806;BME280;5455;53.224;6.000;2023-07-30T06:25:35;100740.28;;;18.67;100.00
10806;BME280;5455;53.224;6.000;2023-07-30T06:28:02;100747.88;;;18.67;100.00
10806;BME280;5455;53.224;6.000;2023-07-30T06:30:30;100737.19;;;18.62;100.00
10806;BME280;5455;53.224;6.000;2023-07-30T06:32:57;100743.16;;;18.60;100.00
10806;BME280;5455;53.224;6.000;2023-07-30T06:35:24;100746.44;;;18.52;100.00
10806;BME280;5455;53.224;6.000;2023-07-30T06:37:52;100754.47;;;18.50;100.00
10806;BME280;5455;53.224;6.000;2023-07-30T06:40:19;100737.28;;;18.48;100.00
10806;BME280;5455;53.224;6.000;2023-07-30T06:42:45;100740.88;;;18.52;100.00
10806;BME280;5455;53.224;6.000;2023-07-30T06:45:12;100731.28;;;18.53;100.00
10806;BME280;5455;53.224;6.000;2023-07-30T06:47:40;100737.97;;;18.62;100.00
10806;BME280;5455;53.224;6.000;2023-07-30T06:50:07;100730.28;;;18.70;100.00
10806;BME280;5455;53.224;6.000;2023-07-30T06:52:36;100729.31;;;18.84;100.00
10806;BME280;5455;53.224;6.000;2023-07-30T06:55:03;100733.16;;;18.97;100.00
10806;BME280;5455;53.224;6.000;2023-07-30T06:57:30;100731.19;;;19.24;100.00
10806;BME280;5455;53.224;6.000;2023-07-30T06:59:57;100740.72;;;19.80;100.00
10806;BME280;5455;53.224;6.000;2023-07-30T07:02:25;100742.81;;;20.22;100.00
10806;BME280;5455;53.224;6.000;2023-07-30T07:04:54;100749.19;;;20.23;100.00
10806;BME280;5455;53.224;6.000;2023-07-30T07:07:21;100732.97;;;20.14;100.00
10806;BME280;5455;53.224;6.000;2023-07-30T07:09:48;100746.00;;;20.24;100.00
10806;BME280;5455;53.224;6.000;2023-07-30T07:12:15;100755.81;;;20.36;100.00
10806;BME280;5455;53.224;6.000;2023-07-30T07:14:43;100751.81;;;20.10;100.00
10806;BME280;5455;53.224;6.000;2023-07-30T07:17:10;100751.47;;;20.08;100.00
10806;BME280;5455;53.224;6.000;2023-07-30T07:19:37;100744.09;;;20.18;100.00
10806;BME280;5455;53.224;6.000;2023-07-30T07:22:04;100753.81;;;20.37;100.00
10806;BME280;5455;53.224;6.000;2023-07-30T07:24:31;100750.78;;;20.24;100.00
10806;BME280;5455;53.224;6.000;2023-07-30T07:26:59;100747.44;;;20.09;100.00
10806;BME280;5455;53.224;6.000;2023-07-30T07:29:26;100759.41;;;19.87;100.00
10806;BME280;5455;53.224;6.000;2023-07-30T07:31:53;100764.66;;;19.85;100.00
10806;BME280;5455;53.224;6.000;2023-07-30T07:34:20;100766.06;;;19.96;100.00
10806;BME280;5455;53.224;6.000;2023-07-30T07:36:49;100766.97;;;20.13;100.00
10806;BME280;5455;53.224;6.000;2023-07-30T07:39:16;100776.25;;;20.33;100.00
10806;BME280;5455;53.224;6.000;2023-07-30T07:41:45;100771.94;;;20.25;100.00
10806;BME280;5455;53.224;6.000;2023-07-30T07:44:12;100781.03;;;20.09;100.00
10806;BME280;5455;53.224;6.000;2023-07-30T07:46:39;100773.84;;;20.08;100.00
10806;BME280;5455;53.224;6.000;2023-07-30T07:49:10;100782.66;;;20.33;100.00
10806;BME280;5455;53.224;6.000;2023-07-30T07:51:37;100794.09;;;20.43;100.00
10806;BME280;5455;53.224;6.000;2023-07-30T07:54:05;100794.34;;;20.52;100.00
10806;BME280;5455;53.224;6.000;2023-07-30T07:56:32;100788.97;;;20.38;100.00
10806;BME280;5455;53.224;6.000;2023-07-30T07:59:00;100783.34;;;20.14;100.00
10806;BME280;5455;53.224;6.000;2023-07-30T08:01:27;100790.53;;;20.15;100.00
10806;BME280;5455;53.224;6.000;2023-07-30T08:03:55;100785.66;;;20.19;100.00
10806;BME280;5455;53.224;6.000;2023-07-30T08:06:22;100785.34;;;20.14;100.00
10806;BME280;5455;53.224;6.000;2023-07-30T08:08:50;100782.56;;;20.14;100.00
10806;BME280;5455;53.224;6.000;2023-07-30T08:11:17;100779.50;;;20.05;100.00
10806;BME280;5455;53.224;6.000;2023-07-30T08:13:44;100771.59;;;20.00;100.00
10806;BME280;5455;53.224;6.000;2023-07-30T08:16:13;100781.22;;;19.99;100.00
10806;BME280;5455;53.224;6.000;2023-07-30T08:18:41;100774.16;;;20.14;100.00
10806;BME280;5455;53.224;6.000;2023-07-30T08:21:08;100773.19;;;20.24;100.00
10806;BME280;5455;53.224;6.000;2023-07-30T08:23:35;100779.47;;;20.31;100.00
10806;BME280;5455;53.224;6.000;2023-07-30T08:26:02;100779.72;;;20.41;100.00
10806;BME280;5455;53.224;6.000;2023-07-30T08:28:29;100778.38;;;20.25;100.00
10806;BME280;5455;53.224;6.000;2023-07-30T08:31:03;100788.41;;;20.00;100.00
10806;BME280;5455;53.224;6.000;2023-07-30T08:33:30;100783.19;;;19.75;100.00
10806;BME280;5455;53.224;6.000;2023-07-30T08:35:59;100781.66;;;19.44;100.00
10806;BME280;5455;53.224;6.000;2023-07-30T08:38:28;100781.47;;;19.27;100.00
10806;BME280;5455;53.224;6.000;2023-07-30T08:40:55;100777.31;;;19.09;100.00
10806;BME280;5455;53.224;6.000;2023-07-30T08:43:23;100773.91;;;18.94;100.00
10806;BME280;5455;53.224;6.000;2023-07-30T08:45:50;100783.63;;;18.83;100.00
10806;BME280;5455;53.224;6.000;2023-07-30T08:48:17;100767.69;;;18.80;100.00
10806;BME280;5455;53.224;6.000;2023-07-30T08:50:46;100778.22;;;18.99;100.00
10806;BME280;5455;53.224;6.000;2023-07-30T08:53:15;100776.19;;;19.03;100.00
10806;BME280;5455;53.224;6.000;2023-07-30T08:55:42;100775.66;;;19.45;100.00
10806;BME280;5455;53.224;6.000;2023-07-30T08:58:10;100780.63;;;19.61;100.00
10806;BME280;5455;53.224;6.000;2023-07-30T09:00:38;100788.16;;;20.14;100.00
10806;BME280;5455;53.224;6.000;2023-07-30T09:03:08;100787.81;;;20.35;100.00
10806;BME280;5455;53.224;6.000;2023-07-30T09:05:36;100796.94;;;20.62;100.00
10806;BME280;5455;53.224;6.000;2023-07-30T09:08:05;100794.22;;;20.78;100.00
10806;BME280;5455;53.224;6.000;2023-07-30T09:10:33;100782.41;;;20.67;100.00
10806;BME280;5455;53.224;6.000;2023-07-30T09:13:01;100792.50;;;20.84;100.00
10806;BME280;5455;53.224;6.000;2023-07-30T09:15:34;100794.69;;;21.16;100.00
10806;BME280;5455;53.224;6.000;2023-07-30T09:18:03;100798.28;;;21.17;100.00
10806;BME280;5455;53.224;6.000;2023-07-30T09:20:38;100792.00;;;20.89;100.00
10806;BME280;5455;53.224;6.000;2023-07-30T09:23:06;100794.28;;;20.75;100.00
10806;BME280;5455;53.224;6.000;2023-07-30T09:25:35;100790.69;;;20.74;100.00
10806;BME280;5455;53.224;6.000;2023-07-30T09:28:02;100797.50;;;20.54;100.00
10806;BME280;5455;53.224;6.000;2023-07-30T09:30:30;100784.66;;;20.33;100.00
10806;BME280;5455;53.224;6.000;2023-07-30T09:32:57;100793.72;;;20.41;100.00
10806;BME280;5455;53.224;6.000;2023-07-30T09:35:25;100799.78;;;20.59;100.00
10806;BME280;5455;53.224;6.000;2023-07-30T09:38:01;100806.81;;;20.47;100.00
10806;BME280;5455;53.224;6.000;2023-07-30T09:40:34;100807.59;;;20.48;100.00
10806;BME280;5455;53.224;6.000;2023-07-30T09:43:05;100807.66;;;20.87;100.00
10806;BME280;5455;53.224;6.000;2023-07-30T09:45:34;100808.50;;;21.27;100.00
10806;BME280;5455;53.224;6.000;2023-07-30T09:50:33;100824.91;;;21.80;100.00
10806;BME280;5455;53.224;6.000;2023-07-30T09:53:01;100822.19;;;21.21;100.00
10806;BME280;5455;53.224;6.000;2023-07-30T09:55:29;100824.09;;;20.85;100.00
10806;BME280;5455;53.224;6.000;2023-07-30T09:57:56;100828.19;;;21.23;100.00
10806;BME280;5455;53.224;6.000;2023-07-30T10:00:24;100827.72;;;21.80;100.00
10806;BME280;5455;53.224;6.000;2023-07-30T10:02:52;100829.38;;;22.14;99.50
10806;BME280;5455;53.224;6.000;2023-07-30T10:05:25;100837.53;;;22.24;93.66
10806;BME280;5455;53.224;6.000;2023-07-30T10:07:59;100835.94;;;22.07;86.91
10806;BME280;5455;53.224;6.000;2023-07-30T10:10:28;100842.63;;;21.77;90.31
10806;BME280;5455;53.224;6.000;2023-07-30T10:13:00;100845.66;;;21.51;93.42
10806;BME280;5455;53.224;6.000;2023-07-30T10:15:27;100830.81;;;21.50;90.92
10806;BME280;5455;53.224;6.000;2023-07-30T10:17:56;100837.50;;;21.56;89.26
10806;BME280;5455;53.224;6.000;2023-07-30T10:20:30;100845.66;;;22.03;87.75
10806;BME280;5455;53.224;6.000;2023-07-30T10:22:59;100838.91;;;22.32;80.44
10806;BME280;5455;53.224;6.000;2023-07-30T10:25:52;100845.16;;;22.56;79.73
10806;BME280;5455;53.224;6.000;2023-07-30T10:31:07;100853.94;;;22.10;78.87
10806;BME280;5455;53.224;6.000;2023-07-30T10:34:06;100850.25;;;21.77;81.02
10806;BME280;5455;53.224;6.000;2023-07-30T10:36:40;100853.25;;;21.50;78.69
10806;BME280;5455;53.224;6.000;2023-07-30T10:40:15;100860.16;;;21.81;81.20
10806;BME280;5455;53.224;6.000;2023-07-30T10:42:44;100855.63;;;21.52;81.72
10806;BME280;5455;53.224;6.000;2023-07-30T10:45:11;100860.97;;;21.46;82.18
10806;BME280;5455;53.224;6.000;2023-07-30T10:47:40;100856.31;;;21.20;83.64
10806;BME280;5455;53.224;6.000;2023-07-30T10:50:08;100849.69;;;21.30;88.16
10806;BME280;5455;53.224;6.000;2023-07-30T10:55:05;100845.06;;;22.43;87.26
10806;BME280;5455;53.224;6.000;2023-07-30T10:57:32;100850.59;;;22.79;81.42
10806;BME280;5455;53.224;6.000;2023-07-30T10:59:59;100872.72;;;22.61;77.81
10806;BME280;5455;53.224;6.000;2023-07-30T11:02:28;100860.19;;;22.49;80.65
10806;BME280;5455;53.224;6.000;2023-07-30T11:04:57;100875.03;;;22.66;84.42
10806;BME280;5455;53.224;6.000;2023-07-30T11:07:24;100865.38;;;22.67;84.73
10806;BME280;5455;53.224;6.000;2023-07-30T11:10:00;100862.81;;;22.40;82.40
10806;BME280;5455;53.224;6.000;2023-07-30T11:12:28;100866.31;;;22.77;80.88
10806;BME280;5455;53.224;6.000;2023-07-30T11:15:02;100864.22;;;23.10;76.88
10806;BME280;5455;53.224;6.000;2023-07-30T11:17:30;100868.53;;;23.27;75.72
10806;BME280;5455;53.224;6.000;2023-07-30T11:19:57;100866.47;;;23.15;72.22
10806;BME280;5455;53.224;6.000;2023-07-30T11:22:31;100873.69;;;23.16;72.96
10806;BME280;5455;53.224;6.000;2023-07-30T11:24:59;100886.78;;;23.22;74.32
10806;BME280;5455;53.224;6.000;2023-07-30T11:27:28;100883.53;;;22.79;72.30
10806;BME280;5455;53.224;6.000;2023-07-30T11:29:56;100878.88;;;22.40;75.45
10806;BME280;5455;53.224;6.000;2023-07-30T11:32:23;100878.19;;;21.84;79.42
10806;BME280;5455;53.224;6.000;2023-07-30T11:34:53;100881.94;;;21.58;86.41
10806;BME280;5455;53.224;6.000;2023-07-30T11:37:21;100876.66;;;21.24;92.10
10806;BME280;5455;53.224;6.000;2023-07-30T11:39:49;100886.06;;;21.33;95.86
10806;BME280;5455;53.224;6.000;2023-07-30T11:42:19;100889.38;;;21.48;100.00
10806;BME280;5455;53.224;6.000;2023-07-30T11:44:46;100896.25;;;21.83;98.29
10806;BME280;5455;53.224;6.000;2023-07-30T11:47:21;100891.50;;;21.80;96.04
10806;BME280;5455;53.224;6.000;2023-07-30T11:49:59;100895.03;;;22.36;93.68
10806;BME280;5455;53.224;6.000;2023-07-30T11:52:26;100903.38;;;23.17;88.97
10806;BME280;5455;53.224;6.000;2023-07-30T11:55:00;100899.09;;;23.12;82.36
10806;BME280;5455;53.224;6.000;2023-07-30T11:57:37;100887.59;;;23.35;82.46
10806;BME280;5455;53.224;6.000;2023-07-30T12:00:06;100903.19;;;23.52;77.96
10806;BME280;5455;53.224;6.000;2023-07-30T12:02:38;100907.34;;;23.19;73.71
10806;BME280;5455;53.224;6.000;2023-07-30T12:05:05;100900.41;;;22.79;72.22
10806;BME280;5455;53.224;6.000;2023-07-30T12:07:48;100899.16;;;22.31;74.69
10806;BME280;5455;53.224;6.000;2023-07-30T12:10:15;100911.38;;;22.57;78.23
10806;BME280;5455;53.224;6.000;2023-07-30T12:12:46;100904.88;;;23.21;78.82
10806;BME280;5455;53.224;6.000;2023-07-30T12:15:13;100915.41;;;23.75;75.11
10806;BME280;5455;53.224;6.000;2023-07-30T12:17:40;100926.25;;;23.76;69.74
10806;BME280;5455;53.224;6.000;2023-07-30T12:20:08;100920.97;;;23.49;69.63
10806;BME280;5455;53.224;6.000;2023-07-30T12:22:35;100920.53;;;23.51;72.73
10806;BME280;5455;53.224;6.000;2023-07-30T12:25:02;100915.56;;;23.42;71.00
10806;BME280;5455;53.224;6.000;2023-07-30T12:27:34;100921.47;;;22.87;71.10
10806;BME280;5455;53.224;6.000;2023-07-30T12:30:01;100928.75;;;22.52;73.77
10806;BME280;5455;53.224;6.000;2023-07-30T12:32:28;100923.19;;;22.16;76.01
10806;BME280;5455;53.224;6.000;2023-07-30T12:34:56;100927.06;;;22.22;77.72
10806;BME280;5455;53.224;6.000;2023-07-30T12:37:23;100926.69;;;22.20;74.28
10806;BME280;5455;53.224;6.000;2023-07-30T12:39:53;100928.28;;;22.21;73.64
10806;BME280;5455;53.224;6.000;2023-07-30T12:42:20;100932.97;;;22.28;75.00
10806;BME280;5455;53.224;6.000;2023-07-30T12:44:47;100929.56;;;22.01;73.52
10806;BME280;5455;53.224;6.000;2023-07-30T12:47:15;100924.00;;;22.33;73.85
10806;BME280;5455;53.224;6.000;2023-07-30T12:49:42;100926.88;;;22.29;74.35
10806;BME280;5455;53.224;6.000;2023-07-30T12:52:09;100930.41;;;22.33;74.47
10806;BME280;5455;53.224;6.000;2023-07-30T12:54:36;100923.56;;;22.34;75.31
10806;BME280;5455;53.224;6.000;2023-07-30T12:57:03;100923.88;;;22.72;74.77
10806;BME280;5455;53.224;6.000;2023-07-30T12:59:30;100937.50;;;23.19;72.53
10806;BME280;5455;53.224;6.000;2023-07-30T13:01:58;100936.09;;;23.11;68.57
10806;BME280;5455;53.224;6.000;2023-07-30T13:04:25;100936.97;;;23.40;67.76
10806;BME280;5455;53.224;6.000;2023-07-30T13:06:55;100942.34;;;23.76;67.70